Time;durP1;ratioP1;P1;durP2;ratioP2;P2;SDS_P1;SDS_P2;PMS_P1;PMS_P2;Temp;Humidity;BMP_temperature;BMP_pressure;BME280_temperature;BME280_humidity;BME280_pressure;Samples;Min_cycle;Max_cycle;Signal;HPM_P1;HPM_P2
2022/02/20 00:00:09;;;;;;;58.45;33.35;;;9.40;99.90;;;;;;5056288;28;20055;-78
2022/02/20 00:02:36;;;;;;;29.20;17.75;;;9.40;99.90;;;;;;5035178;28;20446;-76
2022/02/20 00:05:04;;;;;;;23.70;14.07;;;9.30;99.90;;;;;;5052996;28;20051;-76
2022/02/20 00:07:31;;;;;;;31.58;17.55;;;9.30;99.90;;;;;;5035596;28;20045;-76
2022/02/20 00:09:58;;;;;;;26.92;16.27;;;9.10;99.90;;;;;;5052650;28;20045;-76
2022/02/20 00:12:25;;;;;;;25.08;14.73;;;9.00;99.90;;;;;;5053073;28;20037;-75
2022/02/20 00:14:53;;;;;;;25.92;15.00;;;9.10;99.90;;;;;;5035232;28;20045;-77
2022/02/20 00:17:21;;;;;;;25.65;14.82;;;9.20;99.90;;;;;;5052727;28;20057;-77
2022/02/20 00:19:49;;;;;;;65.20;55.95;;;9.40;99.90;;;;;;5034434;28;20045;-74
2022/02/20 00:22:17;;;;;;;27.48;16.95;;;9.40;99.90;;;;;;5069408;28;20059;-76
2022/02/20 00:24:44;;;;;;;27.27;15.80;;;9.40;99.90;;;;;;5069079;28;20044;-77
2022/02/20 00:27:12;;;;;;;33.40;23.40;;;9.20;99.90;;;;;;5038226;28;20050;-75
2022/02/20 00:29:39;;;;;;;33.17;24.45;;;9.20;99.90;;;;;;5071626;28;20041;-76
2022/02/20 00:32:07;;;;;;;31.25;17.67;;;9.30;99.90;;;;;;5071938;28;20048;-77
2022/02/20 00:34:34;;;;;;;32.15;17.70;;;9.20;99.90;;;;;;5072074;28;20041;-75
2022/02/20 00:37:02;;;;;;;29.98;18.75;;;9.20;99.90;;;;;;5063342;28;20040;-76
2022/02/20 00:39:31;;;;;;;67.25;59.92;;;9.40;99.90;;;;;;5058566;28;20060;-72
2022/02/20 00:41:59;;;;;;;41.45;16.40;;;9.50;99.90;;;;;;5044276;28;20063;-76
2022/02/20 00:44:26;;;;;;;28.92;16.83;;;9.50;99.90;;;;;;5061222;28;20482;-75
2022/02/20 00:46:53;;;;;;;26.80;16.55;;;9.60;99.90;;;;;;5052746;28;20037;-76
2022/02/20 00:49:21;;;;;;;26.20;18.50;;;9.60;99.90;;;;;;5035075;28;20040;-79
2022/02/20 00:51:48;;;;;;;27.98;16.40;;;9.70;99.90;;;;;;5053885;28;20040;-77
2022/02/20 00:54:15;;;;;;;24.25;15.13;;;9.70;99.90;;;;;;5050935;28;20052;-79
2022/02/20 00:56:43;;;;;;;32.17;16.80;;;9.70;99.90;;;;;;5046816;28;20612;-77
2022/02/20 00:59:10;;;;;;;33.58;16.45;;;9.70;99.90;;;;;;5053342;28;20040;-83
2022/02/20 01:01:38;;;;;;;45.88;22.48;;;9.70;99.90;;;;;;5071989;28;20052;-76
2022/02/20 01:04:05;;;;;;;45.75;34.92;;;9.60;99.90;;;;;;5090963;28;20043;-83
2022/02/20 01:06:32;;;;;;;94.45;84.13;;;9.60;99.90;;;;;;5072612;28;20516;-75
2022/02/20 01:08:59;;;;;;;46.63;24.20;;;9.60;99.90;;;;;;5090660;28;20501;-76
2022/02/20 01:11:27;;;;;;;37.83;21.77;;;9.50;99.90;;;;;;5072902;28;20393;-81
2022/02/20 01:13:54;;;;;;;80.50;63.58;;;9.50;99.90;;;;;;5089196;28;20052;-77
2022/02/20 01:16:21;;;;;;;44.78;21.75;;;9.50;99.90;;;;;;5091882;28;20105;-78
2022/02/20 01:18:49;;;;;;;167.60;104.18;;;9.50;99.90;;;;;;5091831;28;20059;-78
2022/02/20 01:21:16;;;;;;;104.03;84.38;;;9.40;99.90;;;;;;5091597;28;20090;-78
2022/02/20 01:23:43;;;;;;;65.63;42.67;;;9.50;99.90;;;;;;5073466;28;20058;-77
2022/02/20 01:26:11;;;;;;;50.38;32.53;;;9.50;99.90;;;;;;5073950;28;20040;-78
2022/02/20 01:28:38;;;;;;;54.35;30.08;;;9.30;99.90;;;;;;5091676;28;20040;-78
2022/02/20 01:31:05;;;;;;;85.72;77.05;;;9.30;99.90;;;;;;5091454;28;20401;-77
2022/02/20 01:33:32;;;;;;;55.70;29.75;;;9.40;99.90;;;;;;5091404;28;20042;-75
2022/02/20 01:36:00;;;;;;;43.22;24.17;;;9.40;99.90;;;;;;5073151;28;20039;-72
2022/02/20 01:38:27;;;;;;;52.33;31.40;;;9.40;99.90;;;;;;5056953;28;20040;-78
2022/02/20 01:40:56;;;;;;;59.50;35.92;;;9.40;99.90;;;;;;5073725;28;20042;-77
2022/02/20 01:43:24;;;;;;;57.90;35.47;;;9.30;99.90;;;;;;5073199;28;20040;-74
2022/02/20 01:45:51;;;;;;;60.75;36.08;;;9.00;99.90;;;;;;5073268;28;20122;-77
2022/02/20 01:48:19;;;;;;;65.05;34.63;;;8.90;99.90;;;;;;5091567;28;20028;-77
2022/02/20 01:50:47;;;;;;;86.82;47.40;;;9.00;99.90;;;;;;5073344;28;20040;-74
2022/02/20 01:53:14;;;;;;;153.60;83.97;;;9.10;99.90;;;;;;5091588;28;20374;-74
2022/02/20 01:55:42;;;;;;;74.10;42.97;;;9.20;99.90;;;;;;5073700;28;20048;-78
2022/02/20 01:58:10;;;;;;;69.93;36.47;;;9.00;99.90;;;;;;5073135;28;20032;-78
2022/02/20 02:00:37;;;;;;;55.20;32.85;;;9.10;99.90;;;;;;5083982;28;20490;-78
2022/02/20 02:03:04;;;;;;;64.07;33.75;;;9.20;99.90;;;;;;5069965;28;20116;-78
2022/02/20 02:05:32;;;;;;;61.45;33.95;;;9.10;99.90;;;;;;5053290;28;20515;-81
2022/02/20 02:07:59;;;;;;;57.88;31.77;;;8.90;99.90;;;;;;5070924;28;20041;-78
2022/02/20 02:10:26;;;;;;;62.10;32.03;;;8.80;99.90;;;;;;5053528;28;20044;-83
2022/02/20 02:12:54;;;;;;;45.83;27.70;;;8.80;99.90;;;;;;5070714;28;20397;-80
2022/02/20 02:15:21;;;;;;;53.83;30.63;;;8.90;99.90;;;;;;5071553;28;20067;-81
2022/02/20 02:17:48;;;;;;;57.90;29.23;;;8.90;99.90;;;;;;5070100;28;20419;-82
2022/02/20 02:20:15;;;;;;;47.90;27.30;;;8.90;99.90;;;;;;5069585;28;20048;-76
2022/02/20 02:22:42;;;;;;;60.25;33.90;;;8.80;99.90;;;;;;5070957;28;20036;-81
2022/02/20 02:25:10;;;;;;;63.22;35.53;;;8.70;99.90;;;;;;5071076;28;20409;-80
2022/02/20 02:27:37;;;;;;;57.55;32.72;;;8.70;99.90;;;;;;5070563;28;20390;-80
2022/02/20 02:30:08;;;;;;;58.92;33.22;;;8.80;99.90;;;;;;5071304;28;20063;-77
2022/02/20 02:32:35;;;;;;;54.58;32.70;;;8.90;99.90;;;;;;5069749;28;20044;-71
2022/02/20 02:35:03;;;;;;;60.50;31.95;;;8.80;99.90;;;;;;5069691;28;20044;-73
2022/02/20 02:37:31;;;;;;;58.15;32.25;;;8.90;99.90;;;;;;5069596;28;20044;-76
2022/02/20 02:39:58;;;;;;;62.42;33.70;;;8.50;99.90;;;;;;5070715;28;20094;-74
2022/02/20 02:42:25;;;;;;;48.67;27.02;;;8.20;99.90;;;;;;5070542;28;20037;-78
2022/02/20 02:44:52;;;;;;;48.78;27.73;;;8.60;99.90;;;;;;5071035;28;20040;-78
2022/02/20 02:47:20;;;;;;;41.92;24.15;;;8.80;99.90;;;;;;5071816;28;20106;-77
2022/02/20 02:49:47;;;;;;;30.52;16.58;;;8.90;99.90;;;;;;5074451;28;20413;-78
2022/02/20 02:52:15;;;;;;;24.65;14.55;;;8.90;99.90;;;;;;5074706;28;20036;-78
2022/02/20 02:54:42;;;;;;;25.17;16.30;;;8.90;99.90;;;;;;5074232;28;20127;-74
2022/02/20 02:57:09;;;;;;;35.75;18.77;;;9.00;99.90;;;;;;5074043;28;20044;-79
2022/02/20 02:59:37;;;;;;;23.60;13.45;;;9.00;99.90;;;;;;5079538;28;20374;-79
2022/02/20 03:02:04;;;;;;;21.92;13.63;;;9.00;99.90;;;;;;5094566;28;20051;-79
2022/02/20 03:04:32;;;;;;;23.42;14.90;;;9.00;99.90;;;;;;5093967;28;20101;-79
2022/02/20 03:07:00;;;;;;;25.15;14.68;;;8.80;99.90;;;;;;5094274;28;20400;-76
2022/02/20 03:09:27;;;;;;;24.40;15.45;;;8.70;99.90;;;;;;5094561;28;20654;-78
2022/02/20 03:11:54;;;;;;;27.30;14.07;;;8.90;99.90;;;;;;5094119;28;20044;-77
2022/02/20 03:14:22;;;;;;;109.05;86.70;;;8.90;99.90;;;;;;5093408;28;20055;-79
2022/02/20 03:16:50;;;;;;;147.38;93.55;;;8.90;99.90;;;;;;5093905;28;20051;-79
2022/02/20 03:19:18;;;;;;;77.82;47.65;;;9.00;99.90;;;;;;5093885;28;20044;-78
2022/02/20 03:21:45;;;;;;;131.45;90.35;;;9.00;99.90;;;;;;5094172;28;20132;-77
2022/02/20 03:24:12;;;;;;;29.88;19.55;;;8.90;99.90;;;;;;5093859;28;20040;-80
2022/02/20 03:26:39;;;;;;;34.65;19.13;;;8.90;99.90;;;;;;5093499;28;20040;-81
2022/02/20 03:29:07;;;;;;;24.38;15.23;;;8.90;99.90;;;;;;5076248;28;20139;-82
2022/02/20 03:31:34;;;;;;;22.33;14.63;;;8.70;99.90;;;;;;5076162;28;20044;-79
2022/02/20 03:34:02;;;;;;;123.00;88.53;;;8.40;99.90;;;;;;5059140;28;20048;-82
2022/02/20 03:36:31;;;;;;;234.35;99.18;;;8.00;99.90;;;;;;5094012;28;20040;-80
2022/02/20 03:38:59;;;;;;;285.63;100.97;;;7.70;99.90;;;;;;5059401;28;20445;-79
2022/02/20 03:41:26;;;;;;;316.42;101.95;;;7.70;99.90;;;;;;5075547;28;20066;-80
2022/02/20 03:43:53;;;;;;;21.98;13.95;;;7.80;99.90;;;;;;5075768;28;20054;-81
2022/02/20 03:46:21;;;;;;;19.90;11.85;;;7.90;99.90;;;;;;5075693;28;20044;-81
2022/02/20 03:48:48;;;;;;;19.75;11.63;;;7.90;99.90;;;;;;5075784;28;20108;-85
2022/02/20 03:51:15;;;;;;;17.40;11.05;;;7.90;99.90;;;;;;5076146;28;20044;-83
2022/02/20 03:53:43;;;;;;;17.88;10.93;;;8.10;99.90;;;;;;5075102;28;20088;-79
2022/02/20 03:56:10;;;;;;;22.98;12.40;;;8.30;99.90;;;;;;5075592;28;20043;-83
2022/02/20 03:58:37;;;;;;;28.45;13.80;;;8.50;99.90;;;;;;5059012;28;20051;-83
2022/02/20 04:01:04;;;;;;;25.13;15.52;;;8.40;99.90;;;;;;5085518;28;20420;-78
2022/02/20 04:03:33;;;;;;;32.53;16.88;;;8.50;99.90;;;;;;5071468;28;20059;-80
2022/02/20 04:06:01;;;;;;;30.45;18.90;;;8.40;99.90;;;;;;5072362;28;20041;-78
2022/02/20 04:08:28;;;;;;;28.35;17.75;;;8.30;99.90;;;;;;5073071;28;20040;-82
2022/02/20 04:10:55;;;;;;;27.83;18.35;;;8.30;99.90;;;;;;5072830;28;20041;-81
2022/02/20 04:13:22;;;;;;;32.42;18.95;;;8.20;99.90;;;;;;5071805;28;20420;-75
2022/02/20 04:15:49;;;;;;;40.67;19.85;;;8.00;99.90;;;;;;5073514;28;20037;-82
2022/02/20 04:18:17;;;;;;;35.45;20.50;;;8.00;99.90;;;;;;5071574;28;20048;-81
2022/02/20 04:20:44;;;;;;;32.45;18.83;;;8.10;99.90;;;;;;5071674;28;20048;-82
2022/02/20 04:23:11;;;;;;;30.52;19.70;;;8.20;99.90;;;;;;5072637;28;20569;-80
2022/02/20 04:25:38;;;;;;;34.03;20.45;;;8.00;99.90;;;;;;5071142;28;20045;-80
2022/02/20 04:28:05;;;;;;;35.67;19.45;;;8.00;99.90;;;;;;5072647;28;20055;-81
2022/02/20 04:30:33;;;;;;;36.67;19.92;;;8.00;99.90;;;;;;5073252;28;20387;-82
2022/02/20 04:33:00;;;;;;;32.40;18.40;;;8.00;99.90;;;;;;5072213;28;20051;-79
2022/02/20 04:35:27;;;;;;;27.60;16.35;;;7.90;99.90;;;;;;5072776;28;20042;-83
2022/02/20 04:37:54;;;;;;;36.92;18.05;;;7.90;99.90;;;;;;5072634;28;20048;-83
2022/02/20 04:40:22;;;;;;;29.67;15.93;;;7.70;99.90;;;;;;5071404;28;20042;-85
2022/02/20 04:42:51;;;;;;;30.58;17.10;;;7.90;99.90;;;;;;5071451;28;20051;-83
2022/02/20 04:45:19;;;;;;;28.88;16.27;;;7.90;99.90;;;;;;5071184;28;20152;-79
2022/02/20 04:47:46;;;;;;;32.42;16.05;;;7.90;99.90;;;;;;5072153;28;20382;-82
2022/02/20 04:50:13;;;;;;;34.63;17.55;;;8.00;99.90;;;;;;5071762;28;20041;-79
2022/02/20 04:52:40;;;;;;;30.73;18.40;;;8.00;99.90;;;;;;5071984;28;20048;-81
2022/02/20 04:55:08;;;;;;;37.55;18.23;;;7.80;99.90;;;;;;5071753;28;20059;-80
2022/02/20 04:57:37;;;;;;;34.10;18.48;;;7.80;99.90;;;;;;5070936;28;20070;-80
2022/02/20 05:00:06;;;;;;;34.83;20.33;;;7.70;99.90;;;;;;5077226;28;20047;-80
2022/02/20 05:02:34;;;;;;;35.72;17.55;;;7.80;99.90;;;;;;5073162;28;20505;-82
2022/02/20 05:05:01;;;;;;;35.80;18.02;;;7.80;99.90;;;;;;5092459;28;20040;-82
2022/02/20 05:07:31;;;;;;;21.70;14.52;;;7.80;99.90;;;;;;5074814;28;20046;-83
2022/02/20 05:09:59;;;;;;;25.65;14.98;;;7.70;99.90;;;;;;5091737;28;20044;-85
2022/02/20 05:12:26;;;;;;;26.35;14.75;;;7.70;99.90;;;;;;5075006;28;20051;-87
2022/02/20 05:14:53;;;;;;;20.02;13.05;;;7.80;99.90;;;;;;5092727;28;20387;-83
2022/02/20 05:17:21;;;;;;;19.38;12.30;;;7.60;99.90;;;;;;5093253;28;20516;-81
2022/02/20 05:19:48;;;;;;;23.60;13.07;;;7.50;99.90;;;;;;5092566;28;20039;-80
2022/02/20 05:22:16;;;;;;;21.63;12.40;;;7.40;99.90;;;;;;5093066;28;20421;-87
2022/02/20 05:24:44;;;;;;;16.90;11.57;;;7.30;99.90;;;;;;5092492;28;20058;-83
2022/02/20 05:27:11;;;;;;;20.98;12.30;;;7.40;99.90;;;;;;5092091;28;20119;-85
2022/02/20 05:29:38;;;;;;;28.13;13.05;;;7.50;99.90;;;;;;5092389;28;20040;-88
2022/02/20 05:32:06;;;;;;;18.27;11.30;;;7.50;99.90;;;;;;5074712;28;20056;-85
2022/02/20 05:34:33;;;;;;;20.65;11.50;;;7.50;99.90;;;;;;5092302;28;20131;-85
2022/02/20 05:37:01;;;;;;;19.75;12.02;;;7.40;99.90;;;;;;5092354;28;20397;-84
2022/02/20 05:39:28;;;;;;;17.20;11.50;;;7.30;99.90;;;;;;5074033;28;20401;-82
2022/02/20 05:41:56;;;;;;;19.02;11.63;;;7.40;99.90;;;;;;5092076;28;20032;-81
2022/02/20 05:44:24;;;;;;;18.08;11.75;;;7.40;99.90;;;;;;5073672;28;20050;-83
2022/02/20 05:46:51;;;;;;;20.73;11.93;;;7.50;99.90;;;;;;5073824;28;20044;-86
2022/02/20 05:49:18;;;;;;;18.98;11.80;;;7.40;99.90;;;;;;5091666;28;20044;-86
2022/02/20 05:51:45;;;;;;;23.65;12.38;;;7.50;99.90;;;;;;5074027;28;20539;-85
2022/02/20 05:54:12;;;;;;;14.93;10.80;;;7.50;99.90;;;;;;5091535;28;20401;-84
2022/02/20 05:56:43;;;;;;;18.58;11.50;;;7.70;99.90;;;;;;5091543;28;20056;-83
2022/02/20 05:59:11;;;;;;;16.67;10.90;;;7.80;99.90;;;;;;5073835;28;20044;-85
2022/02/20 06:01:38;;;;;;;16.33;10.20;;;7.80;99.90;;;;;;5057693;28;20079;-82
2022/02/20 06:04:06;;;;;;;19.23;11.60;;;7.60;99.90;;;;;;5053534;28;20135;-83
2022/02/20 06:06:33;;;;;;;16.90;11.80;;;7.60;99.90;;;;;;5071577;28;20040;-83
2022/02/20 06:09:01;;;;;;;17.35;11.43;;;7.50;99.90;;;;;;5053367;28;20040;-79
2022/02/20 06:11:30;;;;;;;21.63;12.57;;;7.30;99.90;;;;;;5053741;28;20095;-84
2022/02/20 06:13:57;;;;;;;22.67;12.15;;;7.50;99.90;;;;;;5071035;28;20049;-84
2022/02/20 06:16:24;;;;;;;18.80;12.10;;;7.30;99.90;;;;;;5053913;28;20048;-85
2022/02/20 06:18:57;;;;;;;25.17;13.10;;;7.10;99.90;;;;;;5053219;28;20632;-84
2022/02/20 06:21:24;;;;;;;18.27;12.85;;;7.30;99.90;;;;;;5054968;28;20048;-81
2022/02/20 06:23:52;;;;;;;20.50;11.88;;;7.70;99.90;;;;;;5075120;28;20043;-84
2022/02/20 06:26:19;;;;;;;19.75;11.45;;;7.70;99.90;;;;;;5057534;28;20036;-85
2022/02/20 06:28:47;;;;;;;17.90;12.82;;;7.90;99.90;;;;;;5075053;28;20040;-84
2022/02/20 06:31:15;;;;;;;18.73;12.13;;;8.00;99.90;;;;;;5057608;28;20055;-84
2022/02/20 06:33:42;;;;;;;23.02;12.80;;;8.00;99.90;;;;;;5075160;28;20402;-82
2022/02/20 06:36:09;;;;;;;18.75;12.32;;;8.20;99.90;;;;;;5056995;28;20036;-83
2022/02/20 06:38:37;;;;;;;20.42;12.00;;;8.20;99.90;;;;;;5074739;28;20398;-82
2022/02/20 06:41:04;;;;;;;21.35;11.55;;;8.10;99.90;;;;;;5057292;28;20040;-85
2022/02/20 06:43:31;;;;;;;28.13;12.57;;;8.10;99.90;;;;;;5056454;28;20044;-85
2022/02/20 06:45:59;;;;;;;20.80;12.32;;;8.10;99.90;;;;;;5057154;28;20053;-83
2022/02/20 06:48:26;;;;;;;22.85;13.43;;;7.90;99.90;;;;;;5074741;28;20537;-84
2022/02/20 06:50:54;;;;;;;17.98;12.00;;;8.10;99.90;;;;;;5057478;28;20059;-87
2022/02/20 06:53:22;;;;;;;23.17;13.07;;;8.10;99.90;;;;;;5057748;28;20037;-83
2022/02/20 06:55:50;;;;;;;19.00;12.48;;;8.00;99.90;;;;;;5040373;28;20050;-84
2022/02/20 06:58:17;;;;;;;27.73;13.88;;;8.00;99.90;;;;;;5074315;28;20456;-78
2022/02/20 07:00:44;;;;;;;23.80;13.27;;;8.20;99.90;;;;;;5057950;28;20044;-81
2022/02/20 07:03:12;;;;;;;24.30;14.75;;;8.40;99.90;;;;;;5093399;28;20097;-85
2022/02/20 07:05:41;;;;;;;21.05;13.68;;;8.60;99.90;;;;;;5094230;28;20126;-86
2022/02/20 07:08:08;;;;;;;25.70;14.80;;;8.80;99.90;;;;;;5093909;28;20036;-84
2022/02/20 07:10:37;;;;;;;24.70;13.90;;;8.90;99.90;;;;;;5076941;28;20052;-84
2022/02/20 07:13:05;;;;;;;25.52;14.27;;;8.90;99.90;;;;;;5093768;28;20044;-83
2022/02/20 07:15:32;;;;;;;23.55;14.63;;;9.00;99.90;;;;;;5093357;28;20489;-81
2022/02/20 07:17:59;;;;;;;25.45;14.35;;;9.00;99.90;;;;;;5093021;28;20044;-80
2022/02/20 07:20:26;;;;;;;28.77;17.05;;;9.00;99.90;;;;;;5093059;28;20063;-80
2022/02/20 07:22:54;;;;;;;23.67;14.57;;;8.90;99.90;;;;;;5094222;28;20070;-82
2022/02/20 07:25:21;;;;;;;27.88;17.45;;;8.80;99.90;;;;;;5094008;28;20052;-82
2022/02/20 07:27:53;;;;;;;25.75;16.33;;;9.00;99.90;;;;;;5093136;28;20398;-85
2022/02/20 07:30:22;;;;;;;29.70;17.08;;;9.00;99.90;;;;;;5093385;28;20055;-85
2022/02/20 07:32:50;;;;;;;28.05;16.20;;;9.10;99.90;;;;;;5093327;28;20058;-83
2022/02/20 07:35:18;;;;;;;28.73;16.67;;;9.30;99.90;;;;;;5093858;28;20040;-85
2022/02/20 07:37:45;;;;;;;22.83;16.85;;;9.40;99.90;;;;;;5093932;28;20063;-84
2022/02/20 07:40:13;;;;;;;26.10;17.52;;;9.20;99.90;;;;;;5092668;28;20382;-86
2022/02/20 07:42:40;;;;;;;26.80;16.88;;;9.00;99.90;;;;;;5076241;28;20043;-84
2022/02/20 07:45:08;;;;;;;30.58;18.20;;;9.20;99.90;;;;;;5094466;28;20481;-86
2022/02/20 07:48:03;;;;;;;23.95;15.10;;;9.30;99.90;;;;;;5093858;28;20041;-82
2022/02/20 07:50:37;;;;;;;21.13;15.20;;;9.00;99.90;;;;;;5090736;28;20105;-86
2022/02/20 07:53:06;;;;;;;23.92;14.05;;;9.10;99.90;;;;;;5093554;28;20045;-85
2022/02/20 07:55:34;;;;;;;26.15;12.52;;;8.90;99.90;;;;;;5094847;28;20040;-88
2022/02/20 07:58:04;;;;;;;16.90;11.30;;;8.80;99.90;;;;;;5077778;28;20054;-84
2022/02/20 08:00:31;;;;;;;21.65;11.88;;;8.80;99.90;;;;;;5093288;28;20056;-86
2022/02/20 08:03:19;;;;;;;17.10;10.18;;;8.90;99.90;;;;;;5092666;28;20075;-83
2022/02/20 08:05:46;;;;;;;15.60;9.65;;;9.10;99.90;;;;;;5093800;28;20797;-86
2022/02/20 08:08:14;;;;;;;18.83;10.60;;;9.30;99.90;;;;;;5093802;28;20508;-84
2022/02/20 08:10:41;;;;;;;16.60;11.55;;;9.60;99.90;;;;;;5092170;28;20052;-84
2022/02/20 08:13:08;;;;;;;15.48;11.20;;;10.00;99.90;;;;;;5092758;28;20646;-86
2022/02/20 08:15:35;;;;;;;18.75;12.38;;;10.20;99.90;;;;;;5092594;28;20043;-85
2022/02/20 08:18:03;;;;;;;20.27;12.65;;;10.30;99.90;;;;;;5093419;28;20032;-83
2022/02/20 08:20:30;;;;;;;18.48;12.30;;;10.20;99.90;;;;;;5092293;28;20083;-85
2022/02/20 08:22:58;;;;;;;20.80;12.70;;;10.00;99.90;;;;;;5092061;28;20512;-87
2022/02/20 08:25:25;;;;;;;19.90;11.50;;;10.00;99.90;;;;;;5093249;28;20390;-82
2022/02/20 08:27:55;;;;;;;21.67;11.75;;;10.00;99.90;;;;;;5091606;28;20067;-83
2022/02/20 08:30:22;;;;;;;16.40;11.07;;;10.30;99.90;;;;;;5091783;28;20448;-85
2022/02/20 08:32:49;;;;;;;17.77;11.60;;;10.30;99.90;;;;;;5091586;28;20044;-85
2022/02/20 08:35:19;;;;;;;22.00;14.63;;;10.40;99.90;;;;;;5093526;28;20063;-88
2022/02/20 08:37:46;;;;;;;24.55;14.95;;;10.70;99.90;;;;;;5092131;28;20047;-84
2022/02/20 08:40:18;;;;;;;27.52;17.48;;;10.90;99.90;;;;;;5092623;28;20036;-88
2022/02/20 08:42:47;;;;;;;32.10;20.60;;;11.20;99.90;;;;;;5093699;28;20036;-86
2022/02/20 08:45:16;;;;;;;34.90;20.95;;;11.40;99.90;;;;;;5091859;28;20044;-89
2022/02/20 08:47:44;;;;;;;35.25;21.80;;;11.50;99.90;;;;;;5092727;28;20047;-84
2022/02/20 08:50:13;;;;;;;35.47;22.20;;;11.50;99.90;;;;;;5092713;28;20058;-84
2022/02/20 08:52:41;;;;;;;29.85;21.02;;;11.50;99.90;;;;;;5092927;28;20036;-88
2022/02/20 08:55:09;;;;;;;57.28;33.22;;;11.40;99.90;;;;;;5092521;28;20048;-85
2022/02/20 08:57:36;;;;;;;42.80;27.27;;;11.90;99.90;;;;;;5092884;28;20047;-77
2022/02/20 09:00:06;;;;;;;32.30;19.50;;;12.10;99.90;;;;;;5091264;28;20062;-82
2022/02/20 09:02:34;;;;;;;28.48;17.52;;;12.30;99.90;;;;;;5070647;28;20041;-81
2022/02/20 09:05:01;;;;;;;31.70;18.80;;;12.40;99.90;;;;;;5071700;28;20036;-82
2022/02/20 09:07:29;;;;;;;24.48;17.13;;;12.50;99.90;;;;;;5087354;28;20048;-82
2022/02/20 09:09:56;;;;;;;25.13;16.98;;;12.40;99.90;;;;;;5070852;28;20539;-84
2022/02/20 09:12:24;;;;;;;29.48;17.63;;;12.60;99.90;;;;;;5072062;28;20043;-81
2022/02/20 09:14:51;;;;;;;28.08;18.92;;;12.60;99.90;;;;;;5070965;28;20497;-84
2022/02/20 09:17:19;;;;;;;27.40;19.88;;;12.80;99.90;;;;;;5072062;28;20048;-82
2022/02/20 09:19:46;;;;;;;31.90;19.35;;;12.80;99.90;;;;;;5070749;28;20533;-85
2022/02/20 09:22:14;;;;;;;28.42;19.33;;;12.90;99.90;;;;;;5070653;28;20045;-84
2022/02/20 09:24:41;;;;;;;27.58;17.48;;;13.30;99.90;;;;;;5071967;28;20044;-85
2022/02/20 09:27:08;;;;;;;30.95;18.42;;;13.50;99.90;;;;;;5071846;28;20071;-83
2022/02/20 09:29:36;;;;;;;27.52;17.23;;;13.40;99.90;;;;;;5070399;28;20374;-82
2022/02/20 09:32:05;;;;;;;28.50;17.45;;;13.70;99.90;;;;;;5086862;28;20509;-81
2022/02/20 09:34:33;;;;;;;24.30;16.15;;;13.80;99.90;;;;;;5071618;28;20036;-83
2022/02/20 09:37:00;;;;;;;23.98;15.55;;;13.50;99.90;;;;;;5071443;28;20044;-81
2022/02/20 09:39:27;;;;;;;22.48;15.13;;;13.40;99.30;;;;;;5071218;28;20049;-80
2022/02/20 09:41:57;;;;;;;23.95;15.05;;;13.60;99.40;;;;;;5087180;28;20052;-78
2022/02/20 09:44:27;;;;;;;24.85;15.23;;;13.70;98.90;;;;;;5070783;28;20037;-77
2022/02/20 09:46:57;;;;;;;26.83;15.52;;;13.90;98.70;;;;;;5071109;28;20354;-83
2022/02/20 09:49:26;;;;;;;;;;;14.00;99.10;;;;;;5071681;28;20051;-81
2022/02/20 09:51:57;;;;;;;61.53;37.65;;;14.40;97.00;;;;;;5070017;28;19921;-80
2022/02/20 09:54:26;;;;;;;26.80;18.08;;;14.30;96.70;;;;;;5071196;28;20040;-81
2022/02/20 09:56:53;;;;;;;23.80;15.27;;;14.60;98.30;;;;;;5069707;28;20418;-82
2022/02/20 09:59:21;;;;;;;32.83;14.82;;;14.20;95.70;;;;;;5073248;28;20047;-81
2022/02/20 10:02:07;;;;;;;21.20;13.18;;;14.60;98.40;;;;;;5069369;28;20046;-80
2022/02/20 10:04:51;;;;;;;17.98;12.02;;;15.00;95.80;;;;;;5090623;28;20105;-82
2022/02/20 10:07:33;;;;;;;19.17;12.80;;;14.70;95.80;;;;;;5073588;28;20036;-77
2022/02/20 10:10:25;;;;;;;29.60;11.65;;;15.10;95.40;;;;;;5091042;28;20036;-79
2022/02/20 10:12:57;;;;;;;23.20;11.02;;;15.80;94.30;;;;;;5090759;28;20036;-79
2022/02/20 10:15:35;;;;;;;16.33;9.73;;;16.10;92.70;;;;;;5091740;28;20134;-79
2022/02/20 10:18:13;;;;;;;20.48;9.25;;;16.20;90.80;;;;;;5090974;28;20060;-83
2022/02/20 10:20:41;;;;;;;20.98;9.63;;;15.80;91.10;;;;;;5073259;28;20037;-76
2022/02/20 10:23:13;;;;;;;17.45;9.00;;;16.00;88.80;;;;;;5089848;28;20054;-80
2022/02/20 10:25:43;;;;;;;13.00;8.98;;;16.20;90.30;;;;;;5073021;28;20040;-77
2022/02/20 10:28:11;;;;;;;17.90;9.55;;;16.50;88.60;;;;;;5090540;28;20033;-84
2022/02/20 10:30:38;;;;;;;15.55;9.07;;;16.80;86.60;;;;;;5091774;28;20831;-82
2022/02/20 10:33:16;;;;;;;21.85;8.85;;;16.80;85.10;;;;;;5073211;28;20492;-82
2022/02/20 10:35:50;;;;;;;19.90;10.88;;;16.80;83.80;;;;;;5073177;28;20055;-80
2022/02/20 10:38:22;;;;;;;21.70;11.77;;;16.40;81.30;;;;;;5072617;28;20134;-79
2022/02/20 10:40:56;;;;;;;14.02;8.82;;;16.00;86.20;;;;;;5090672;28;20044;-78
2022/02/20 10:43:27;;;;;;;38.92;21.38;;;16.10;84.50;;;;;;5072497;28;20051;-77
2022/02/20 10:46:11;;;;;;;87.10;37.50;;;16.70;85.90;;;;;;5091417;28;20040;-77
2022/02/20 10:48:43;;;;;;;19.00;9.73;;;17.20;79.70;;;;;;5090362;28;20044;-78
2022/02/20 10:51:12;;;;;;;18.48;9.73;;;17.40;78.90;;;;;;5090400;28;20044;-72
2022/02/20 10:53:40;;;;;;;20.40;8.88;;;17.50;78.20;;;;;;5090811;28;20444;-72
2022/02/20 10:56:07;;;;;;;11.50;6.70;;;17.70;78.30;;;;;;5072721;28;20040;-72
2022/02/20 10:58:45;;;;;;;26.77;7.97;;;17.40;78.00;;;;;;5090287;28;20044;-79
2022/02/20 11:01:24;;;;;;;61.97;10.07;;;17.70;77.60;;;;;;5086559;28;20383;-72
2022/02/20 11:04:00;;;;;;;24.27;7.05;;;18.00;75.90;;;;;;5070452;28;20837;-76
2022/02/20 11:06:31;;;;;;;11.35;6.28;;;18.10;73.90;;;;;;5070127;28;20044;-72
2022/02/20 11:08:59;;;;;;;16.02;7.07;;;17.80;74.10;;;;;;5054574;28;20052;-74
2022/02/20 11:11:37;;;;;;;9.55;6.20;;;17.90;73.70;;;;;;5056201;28;20041;-78
2022/02/20 11:14:24;;;;;;;26.63;15.55;;;17.70;73.40;;;;;;5072638;28;20040;-71
2022/02/20 11:16:53;;;;;;;14.57;9.70;;;18.30;71.70;;;;;;5073825;28;20047;-72
2022/02/20 11:19:27;;;;;;;33.70;22.30;;;18.10;70.70;;;;;;5055786;28;20044;-72
2022/02/20 11:21:59;;;;;;;32.05;20.20;;;18.50;70.80;;;;;;5074134;28;20044;-78
2022/02/20 11:24:28;;;;;;;16.55;10.20;;;18.80;68.60;;;;;;5072992;28;20052;-82
2022/02/20 11:26:58;;;;;;;10.95;6.00;;;18.90;69.10;;;;;;5073829;28;20044;-71
2022/02/20 11:29:26;;;;;;;9.65;5.15;;;18.90;67.10;;;;;;5073220;28;20036;-79
2022/02/20 11:31:55;;;;;;;10.30;5.72;;;18.40;68.10;;;;;;5055667;28;20056;-81
2022/02/20 11:34:23;;;;;;;8.45;5.15;;;18.80;67.60;;;;;;5073421;28;20044;-77
2022/02/20 11:36:55;;;;;;;11.85;5.40;;;19.20;66.70;;;;;;5073761;28;20036;-77
2022/02/20 11:39:27;;;;;;;8.98;4.75;;;19.40;65.80;;;;;;5055446;28;20033;-81
2022/02/20 11:42:12;;;;;;;11.05;6.05;;;19.10;64.70;;;;;;5073538;28;20043;-83
2022/02/20 11:44:47;;;;;;;13.82;6.05;;;18.70;67.80;;;;;;5080593;28;20638;-75
2022/02/20 11:47:43;;;;;;;11.68;6.22;;;18.80;68.10;;;;;;5073185;28;20599;-79
2022/02/20 11:50:16;;;;;;;11.27;6.15;;;18.70;68.00;;;;;;5081350;28;20040;-79
2022/02/20 11:53:07;;;;;;;12.02;5.35;;;18.90;66.40;;;;;;5081363;28;20047;-74
2022/02/20 11:55:39;;;;;;;116.38;17.13;;;18.90;67.40;;;;;;5081822;28;20043;-75
2022/02/20 12:01:03;;;;;;;11.13;5.05;;;19.10;64.80;;;;;;5082448;28;20063;-76
2022/02/20 12:03:47;;;;;;;50.00;8.43;;;19.30;65.30;;;;;;5065869;28;20043;-74
2022/02/20 12:06:16;;;;;;;23.40;7.93;;;19.70;69.40;;;;;;5074638;28;20040;-78
2022/02/20 12:08:59;;;;;;;12.63;5.45;;;20.20;73.00;;;;;;5075302;28;20393;-75
2022/02/20 12:11:39;;;;;;;9.60;4.97;;;20.00;66.60;;;;;;5089437;28;20439;-77
2022/02/20 12:14:15;;;;;;;9.23;4.87;;;19.80;66.80;;;;;;5074911;28;21304;-77
2022/02/20 12:16:49;;;;;;;12.88;5.93;;;19.70;63.40;;;;;;5087685;28;20285;-77
2022/02/20 12:19:33;;;;;;;25.02;14.80;;;19.90;65.50;;;;;;5092124;28;20329;-75
2022/02/20 12:22:10;;;;;;;91.45;53.50;;;19.90;62.90;;;;;;5072845;28;20063;-74
2022/02/20 12:25:04;;;;;;;72.00;45.13;;;20.60;63.30;;;;;;5081383;28;20119;-76
2022/02/20 12:27:38;;;;;;;17.05;9.82;;;20.40;62.90;;;;;;5089813;28;20040;-73
2022/02/20 12:30:13;;;;;;;16.38;8.38;;;20.40;62.00;;;;;;5069127;28;20043;-78
2022/02/20 12:32:47;;;;;;;13.98;7.65;;;21.00;63.20;;;;;;5066478;28;20087;-73
2022/02/20 12:35:17;;;;;;;20.17;10.32;;;21.20;63.40;;;;;;5088223;28;20388;-72
2022/02/20 12:37:56;;;;;;;82.30;52.10;;;21.20;59.90;;;;;;5083318;28;20040;-75
2022/02/20 12:40:25;;;;;;;15.60;8.43;;;21.10;63.40;;;;;;5089769;28;20405;-76
2022/02/20 12:43:07;;;;;;;17.88;7.47;;;20.90;61.90;;;;;;5057654;28;20151;-81
2022/02/20 12:45:37;;;;;;;13.20;6.40;;;21.70;60.30;;;;;;5070406;28;20131;-78
2022/02/20 12:48:07;;;;;;;17.90;7.47;;;21.40;59.60;;;;;;5084585;28;20047;-76